createdAt,value
2018-09-09T00:00:47.036Z,16.52
2018-09-09T00:03:14.485Z,16.51
2018-09-09T00:05:42.030Z,16.51
2018-09-09T00:08:09.464Z,16.52
2018-09-09T00:10:36.940Z,16.51
2018-09-09T00:13:04.497Z,16.50
2018-09-09T00:15:31.913Z,16.47
2018-09-09T00:17:59.408Z,16.45
2018-09-09T00:20:26.998Z,16.43
2018-09-09T00:22:54.595Z,16.41
2018-09-09T00:25:22.142Z,16.40
2018-09-09T00:27:49.766Z,16.39
2018-09-09T00:30:17.208Z,16.40
2018-09-09T00:32:44.687Z,16.42
2018-09-09T00:35:12.301Z,16.44
2018-09-09T00:37:39.754Z,16.43
2018-09-09T00:40:07.242Z,16.43
2018-09-09T00:42:34.941Z,16.44
2018-09-09T00:45:02.479Z,16.44
2018-09-09T00:47:29.903Z,16.40
2018-09-09T00:50:02.773Z,16.38
2018-09-09T00:52:35.736Z,16.36
2018-09-09T00:55:03.363Z,16.36
2018-09-09T00:57:30.838Z,16.36
2018-09-09T00:59:58.346Z,16.38
2018-09-09T01:02:25.979Z,16.36
2018-09-09T01:04:53.515Z,16.40
2018-09-09T01:07:20.930Z,16.42
2018-09-09T01:09:48.481Z,16.45
2018-09-09T01:12:15.983Z,16.47
2018-09-09T01:14:43.474Z,16.50
2018-09-09T01:17:11.071Z,16.54
2018-09-09T01:19:38.520Z,16.55
2018-09-09T01:22:06.065Z,16.54
2018-09-09T01:24:33.961Z,16.54
2018-09-09T01:27:01.426Z,16.51
2018-09-09T01:29:28.879Z,16.54
2018-09-09T01:31:56.568Z,16.55
2018-09-09T01:34:24.021Z,16.55
2018-09-09T01:36:51.478Z,16.55
2018-09-09T01:39:19.085Z,16.56
2018-09-09T01:41:46.524Z,16.54
2018-09-09T01:44:14.002Z,16.54
2018-09-09T01:46:41.719Z,16.55
2018-09-09T01:49:09.160Z,16.53
2018-09-09T01:51:36.639Z,16.51
2018-09-09T01:54:04.214Z,16.53
2018-09-09T01:56:31.674Z,16.51
2018-09-09T01:58:59.076Z,16.51
2018-09-09T02:01:26.741Z,16.49
2018-09-09T02:03:54.197Z,16.47
2018-09-09T02:06:21.828Z,16.45
2018-09-09T02:08:49.366Z,16.43
2018-09-09T02:11:16.818Z,16.43
2018-09-09T02:13:44.285Z,16.44
2018-09-09T02:16:11.947Z,16.44
2018-09-09T02:18:39.424Z,16.45
2018-09-09T02:21:06.889Z,16.46
2018-09-09T02:23:34.619Z,16.50
2018-09-09T02:26:02.352Z,16.52
2018-09-09T02:28:29.826Z,16.55
2018-09-09T02:30:57.412Z,16.58
2018-09-09T02:33:24.843Z,16.58
2018-09-09T02:35:52.383Z,16.57
2018-09-09T02:38:20.116Z,16.57
2018-09-09T02:40:47.594Z,16.55
2018-09-09T02:43:15.045Z,16.50
2018-09-09T02:45:42.750Z,16.48
2018-09-09T02:48:10.231Z,16.47
2018-09-09T02:50:37.930Z,16.44
2018-09-09T02:53:05.762Z,16.40
2018-09-09T02:55:36.496Z,16.42
2018-09-09T02:58:03.968Z,16.42
2018-09-09T03:00:31.668Z,16.41
2018-09-09T03:02:59.168Z,16.43
2018-09-09T03:05:26.666Z,16.45
2018-09-09T03:07:54.287Z,16.09
2018-09-09T03:10:21.722Z,16.43
2018-09-09T03:12:49.110Z,16.40
2018-09-09T03:15:17.032Z,16.42
2018-09-09T03:17:44.481Z,16.44
2018-09-09T03:20:11.913Z,16.45
2018-09-09T03:22:39.552Z,16.48
2018-09-09T03:25:07.041Z,16.52
2018-09-09T03:27:34.646Z,16.53
2018-09-09T03:30:02.252Z,16.56
2018-09-09T03:32:29.733Z,16.56
2018-09-09T03:34:57.194Z,16.55
2018-09-09T03:37:24.872Z,16.58
2018-09-09T03:42:24.999Z,16.60
2018-09-09T03:44:52.790Z,16.60
2018-09-09T03:47:20.258Z,16.61
2018-09-09T03:49:47.751Z,16.62
2018-09-09T03:52:15.358Z,16.67
2018-09-09T03:54:42.872Z,16.67
2018-09-09T03:57:10.339Z,16.65
2018-09-09T03:59:38.070Z,16.61
2018-09-09T04:02:05.798Z,16.59
2018-09-09T04:04:33.298Z,16.59
2018-09-09T04:07:01.059Z,16.58
2018-09-09T04:09:28.505Z,16.55
2018-09-09T04:11:55.947Z,16.50
2018-09-09T04:14:23.606Z,16.49
2018-09-09T04:16:51.358Z,16.49
2018-09-09T04:19:18.759Z,16.48
2018-09-09T04:21:50.743Z,16.48
2018-09-09T04:24:18.652Z,16.47
2018-09-09T04:26:46.157Z,16.48
2018-09-09T04:29:14.203Z,16.21
2018-09-09T04:31:41.799Z,16.44
2018-09-09T04:34:09.364Z,16.39
2018-09-09T04:36:36.968Z,16.37
2018-09-09T04:39:07.350Z,16.35
2018-09-09T04:41:34.808Z,16.36
2018-09-09T04:44:02.465Z,16.38
2018-09-09T04:46:29.929Z,16.41
2018-09-09T04:48:57.436Z,16.45
2018-09-09T04:51:25.186Z,16.48
2018-09-09T04:53:52.598Z,16.51
2018-09-09T04:56:20.111Z,16.52
2018-09-09T04:58:47.715Z,16.54
2018-09-09T05:01:15.230Z,16.56
2018-09-09T05:03:45.458Z,16.58
2018-09-09T05:06:13.140Z,16.55
2018-09-09T05:08:40.662Z,16.53
2018-09-09T05:11:08.167Z,16.51
2018-09-09T05:13:35.732Z,16.49
2018-09-09T05:16:03.187Z,16.47
2018-09-09T05:18:30.668Z,16.50
2018-09-09T05:20:58.135Z,16.48
2018-09-09T05:23:25.646Z,16.47
2018-09-09T05:25:53.122Z,16.48
2018-09-09T05:28:20.759Z,16.52
2018-09-09T05:30:48.449Z,16.52
2018-09-09T05:33:15.882Z,16.50
2018-09-09T05:35:43.594Z,16.49
2018-09-09T05:38:11.099Z,16.50
2018-09-09T05:40:38.731Z,16.51
2018-09-09T05:43:06.349Z,16.54
2018-09-09T05:45:33.882Z,16.56
2018-09-09T05:48:01.335Z,16.56
2018-09-09T05:50:28.948Z,16.55
2018-09-09T05:52:56.388Z,16.56
2018-09-09T05:56:26.678Z,16.55
2018-09-09T05:58:54.237Z,16.56
2018-09-09T06:01:21.844Z,16.59
2018-09-09T06:03:49.509Z,16.60
2018-09-09T06:06:16.921Z,16.60
2018-09-09T06:08:44.439Z,16.59
2018-09-09T06:11:12.088Z,16.60
2018-09-09T06:13:39.514Z,16.63
2018-09-09T06:16:07.000Z,16.66
2018-09-09T06:18:34.697Z,16.69
2018-09-09T06:21:02.141Z,16.71
2018-09-09T06:23:29.644Z,16.73
2018-09-09T06:25:57.290Z,16.74
2018-09-09T06:28:24.877Z,16.72
2018-09-09T06:30:52.391Z,16.72
2018-09-09T06:33:19.924Z,16.72
2018-09-09T06:35:47.370Z,16.72
2018-09-09T06:38:14.884Z,16.72
2018-09-09T06:40:42.478Z,16.42
2018-09-09T06:43:09.995Z,16.71
2018-09-09T06:45:37.477Z,16.69
2018-09-09T06:48:05.062Z,16.71
2018-09-09T06:50:32.515Z,16.70
2018-09-09T06:52:59.970Z,16.72
2018-09-09T06:55:27.812Z,16.71
2018-09-09T06:57:55.265Z,16.72
2018-09-09T07:00:22.741Z,16.71
2018-09-09T07:02:50.403Z,16.70
2018-09-09T07:05:17.860Z,16.70
2018-09-09T07:07:45.367Z,16.70
2018-09-09T07:10:13.232Z,16.70
2018-09-09T07:12:40.700Z,16.30
2018-09-09T07:15:08.344Z,16.65
2018-09-09T07:17:36.270Z,16.63
2018-09-09T07:20:03.744Z,16.61
2018-09-09T07:22:31.221Z,16.58
2018-09-09T07:24:58.859Z,16.60
2018-09-09T07:27:26.314Z,16.59
2018-09-09T07:29:53.765Z,16.58
2018-09-09T07:32:21.581Z,16.59
2018-09-09T07:34:49.056Z,16.60
2018-09-09T07:37:16.559Z,16.62
2018-09-09T07:39:44.316Z,16.62
2018-09-09T07:42:11.748Z,16.62
2018-09-09T07:44:39.238Z,16.64
2018-09-09T07:47:07.022Z,16.70
2018-09-09T07:49:34.472Z,16.73
2018-09-09T07:52:01.894Z,16.74
2018-09-09T07:54:29.480Z,16.74
2018-09-09T07:56:56.925Z,16.74
2018-09-09T07:59:24.355Z,16.73
2018-09-09T08:02:22.493Z,16.74
2018-09-09T08:04:49.921Z,16.71
2018-09-09T08:07:17.354Z,16.71
2018-09-09T08:09:44.956Z,16.70
2018-09-09T08:12:12.440Z,16.70
2018-09-09T08:14:39.853Z,16.71
2018-09-09T08:17:07.623Z,16.73
2018-09-09T08:19:35.068Z,16.73
2018-09-09T08:22:02.541Z,16.72
2018-09-09T08:24:30.289Z,16.71
2018-09-09T08:26:57.712Z,16.74
2018-09-09T08:29:25.242Z,16.75
2018-09-09T08:31:52.898Z,16.76
2018-09-09T08:34:20.591Z,16.76
2018-09-09T08:36:48.084Z,16.76
2018-09-09T08:39:15.828Z,16.77
2018-09-09T08:41:43.288Z,16.78
2018-09-09T08:44:10.810Z,16.80
2018-09-09T08:46:38.483Z,16.84
2018-09-09T08:49:06.053Z,16.83
2018-09-09T08:51:33.779Z,16.81
2018-09-09T08:54:01.535Z,16.81
2018-09-09T08:57:31.727Z,16.83
2018-09-09T08:59:59.455Z,16.85
2018-09-09T09:02:26.922Z,16.86
2018-09-09T09:04:54.385Z,16.89
2018-09-09T09:07:22.046Z,16.92
2018-09-09T09:09:49.517Z,16.96
2018-09-09T09:12:17.046Z,16.95
2018-09-09T09:14:44.753Z,16.95
2018-09-09T09:17:12.239Z,16.96
2018-09-09T09:19:39.781Z,16.99
2018-09-09T09:22:07.517Z,17.02
2018-09-09T09:24:35.049Z,17.05
2018-09-09T09:27:02.536Z,17.08
2018-09-09T09:30:00.796Z,17.09
2018-09-09T09:32:28.312Z,17.10
2018-09-09T09:34:56.432Z,17.12
2018-09-09T09:37:25.172Z,17.15
2018-09-09T09:39:53.419Z,17.17
2018-09-09T09:42:21.120Z,17.20
2018-09-09T09:44:48.658Z,17.20
2018-09-09T09:47:16.164Z,17.21
2018-09-09T09:49:43.787Z,17.20
2018-09-09T09:52:11.286Z,17.19
2018-09-09T09:54:39.188Z,17.19
2018-09-09T09:57:07.389Z,17.21
2018-09-09T09:59:34.897Z,17.22
2018-09-09T10:02:02.507Z,17.22
2018-09-09T10:04:30.111Z,17.25
2018-09-09T10:06:57.509Z,17.27
2018-09-09T10:09:24.978Z,17.30
2018-09-09T10:11:52.413Z,17.33
2018-09-09T10:14:19.907Z,17.35
2018-09-09T10:16:47.426Z,17.38
2018-09-09T10:19:14.888Z,17.37
2018-09-09T10:21:42.408Z,17.39
2018-09-09T10:24:09.887Z,17.37
2018-09-09T10:26:37.351Z,17.37
2018-09-09T10:29:04.933Z,17.37
2018-09-09T10:31:32.438Z,17.40
2018-09-09T10:34:00.000Z,17.41
2018-09-09T10:36:27.733Z,17.44
2018-09-09T10:38:55.210Z,17.46
2018-09-09T10:41:22.740Z,17.47
2018-09-09T10:43:50.164Z,17.49
2018-09-09T10:46:17.826Z,17.49
2018-09-09T10:48:45.227Z,17.49
2018-09-09T10:51:12.683Z,17.51
2018-09-09T10:53:40.102Z,17.49
2018-09-09T10:56:07.542Z,17.52
2018-09-09T10:58:35.007Z,17.53
2018-09-09T11:01:02.521Z,17.56
2018-09-09T11:03:30.162Z,17.59
2018-09-09T11:05:57.851Z,17.61
2018-09-09T11:08:25.362Z,17.43
2018-09-09T11:10:52.806Z,17.25
2018-09-09T11:13:20.366Z,17.62
2018-09-09T11:15:47.851Z,17.63
2018-09-09T11:18:15.284Z,17.68
2018-09-09T11:20:42.814Z,17.69
2018-09-09T11:23:10.338Z,17.70
2018-09-09T11:25:43.378Z,17.72
2018-09-09T11:28:10.803Z,17.73
2018-09-09T11:30:38.304Z,17.77
2018-09-09T11:33:05.970Z,17.80
2018-09-09T11:35:33.472Z,17.83
2018-09-09T11:38:01.241Z,17.84
2018-09-09T11:40:28.796Z,17.85
2018-09-09T11:42:56.286Z,17.88
2018-09-09T11:45:23.747Z,17.92
2018-09-09T11:47:51.255Z,17.92
2018-09-09T11:50:18.802Z,17.91
2018-09-09T11:52:46.252Z,17.90
2018-09-09T11:55:13.724Z,17.94
2018-09-09T11:57:41.277Z,17.95
2018-09-09T12:00:08.888Z,17.97
2018-09-09T12:02:36.390Z,18.00
2018-09-09T12:05:03.868Z,18.03
2018-09-09T12:07:31.590Z,18.05
2018-09-09T12:09:59.072Z,18.08
2018-09-09T12:12:27.369Z,18.11
2018-09-09T12:14:55.470Z,18.14
2018-09-09T12:17:22.956Z,18.15
2018-09-09T12:19:50.401Z,18.16
2018-09-09T12:22:17.895Z,18.16
2018-09-09T12:24:45.369Z,18.14
2018-09-09T12:27:12.830Z,18.14
2018-09-09T12:29:40.275Z,18.13
2018-09-09T12:32:07.732Z,18.14
2018-09-09T12:34:35.197Z,18.14
2018-09-09T12:37:02.674Z,18.17
2018-09-09T12:39:30.406Z,18.19
2018-09-09T12:41:57.893Z,18.19
2018-09-09T12:44:30.999Z,18.21
2018-09-09T12:47:04.098Z,18.19
2018-09-09T12:49:31.573Z,18.18
2018-09-09T12:51:59.060Z,18.15
2018-09-09T12:54:26.517Z,18.15
2018-09-09T12:56:53.997Z,18.15
2018-09-09T12:59:21.512Z,18.15
2018-09-09T13:01:49.013Z,18.15
2018-09-09T13:04:16.475Z,18.13
2018-09-09T13:06:43.907Z,18.12
2018-09-09T13:09:11.534Z,18.14
2018-09-09T13:11:39.095Z,18.14
2018-09-09T13:14:06.725Z,18.15
2018-09-09T13:16:34.163Z,18.16
2018-09-09T13:19:01.547Z,18.16
2018-09-09T13:21:29.028Z,18.17
2018-09-09T13:23:56.560Z,18.17
2018-09-09T13:26:24.135Z,18.17
2018-09-09T13:28:51.521Z,18.14
2018-09-09T13:31:19.012Z,18.11
2018-09-09T13:33:46.544Z,18.10
2018-09-09T13:36:13.983Z,18.09
2018-09-09T13:38:41.456Z,18.09
2018-09-09T13:41:09.014Z,18.09
2018-09-09T13:43:36.495Z,18.08
2018-09-09T13:46:04.067Z,18.08
2018-09-09T13:48:31.591Z,18.06
2018-09-09T13:50:59.269Z,18.01
2018-09-09T13:53:26.860Z,17.97
2018-09-09T13:55:54.346Z,17.95
2018-09-09T13:58:21.850Z,17.91
2018-09-09T14:00:49.297Z,17.92
2018-09-09T14:03:16.776Z,17.94
2018-09-09T14:05:44.308Z,17.98
2018-09-09T14:08:11.768Z,18.01
2018-09-09T14:10:39.414Z,18.02
2018-09-09T14:13:06.907Z,18.04
2018-09-09T14:15:34.330Z,18.08
2018-09-09T14:18:01.782Z,18.04
2018-09-09T14:20:29.259Z,18.04
2018-09-09T14:22:56.670Z,18.06
2018-09-09T14:25:24.221Z,18.07
2018-09-09T14:27:51.764Z,18.07
2018-09-09T14:30:19.222Z,18.07
2018-09-09T14:32:46.681Z,18.07
2018-09-09T14:35:14.131Z,18.08
2018-09-09T14:37:41.664Z,18.07
2018-09-09T14:40:09.104Z,18.07
2018-09-09T14:42:36.740Z,18.05
2018-09-09T14:45:04.235Z,18.05
2018-09-09T14:47:31.725Z,18.04
2018-09-09T14:49:59.274Z,18.03
2018-09-09T14:52:26.733Z,18.03
2018-09-09T14:54:54.179Z,18.02
2018-09-09T14:57:21.665Z,18.01
2018-09-09T14:59:49.226Z,17.99
2018-09-09T15:02:16.730Z,17.96
2018-09-09T15:04:44.212Z,17.94
2018-09-09T15:07:11.692Z,17.95
2018-09-09T15:09:39.163Z,17.93
2018-09-09T15:12:06.923Z,17.94
2018-09-09T15:14:34.419Z,17.95
2018-09-09T15:17:01.863Z,17.96
2018-09-09T15:19:29.512Z,17.96
2018-09-09T15:21:56.982Z,17.96
2018-09-09T15:26:58.602Z,17.91
2018-09-09T15:29:26.115Z,17.87
2018-09-09T15:31:53.559Z,17.86
2018-09-09T15:34:21.102Z,17.86
2018-09-09T15:36:48.549Z,17.86
2018-09-09T15:39:16.019Z,17.85
2018-09-09T15:41:43.479Z,17.87
2018-09-09T15:44:11.169Z,17.87
2018-09-09T15:46:38.653Z,17.87
2018-09-09T15:49:06.120Z,17.87
2018-09-09T15:51:33.600Z,17.86
2018-09-09T15:54:01.065Z,17.84
2018-09-09T15:56:28.564Z,17.81
2018-09-09T15:58:56.142Z,17.79
2018-09-09T16:01:23.624Z,17.76
2018-09-09T16:03:51.070Z,17.78
2018-09-09T16:06:18.499Z,17.73
2018-09-09T16:08:45.987Z,17.71
2018-09-09T16:11:13.433Z,17.67
2018-09-09T16:13:41.062Z,17.65
2018-09-09T16:16:08.479Z,17.66
2018-09-09T16:18:35.894Z,17.63
2018-09-09T16:21:03.415Z,17.62
2018-09-09T16:23:30.880Z,17.58
2018-09-09T16:25:58.279Z,17.56
2018-09-09T16:28:25.808Z,17.57
2018-09-09T16:30:53.332Z,17.55
2018-09-09T16:33:20.822Z,17.55
2018-09-09T16:35:48.368Z,17.56
2018-09-09T16:38:15.807Z,17.55
2018-09-09T16:40:43.298Z,17.53
2018-09-09T16:43:10.821Z,17.50
2018-09-09T16:45:38.448Z,17.29
2018-09-09T16:48:06.363Z,17.46
2018-09-09T16:50:33.906Z,17.47
2018-09-09T16:53:01.293Z,17.47
2018-09-09T16:55:28.767Z,17.47
2018-09-09T16:57:56.238Z,17.46
2018-09-09T17:00:23.734Z,17.42
2018-09-09T17:02:51.170Z,17.41
2018-09-09T17:05:18.627Z,17.41
2018-09-09T17:07:46.092Z,17.41
2018-09-09T17:10:13.567Z,17.41
2018-09-09T17:12:41.039Z,17.40
2018-09-09T17:15:08.665Z,17.39
2018-09-09T17:17:36.142Z,17.39
2018-09-09T17:20:03.658Z,17.37
2018-09-09T17:22:31.179Z,17.35
2018-09-09T17:24:58.602Z,17.34
2018-09-09T17:27:26.045Z,17.34
2018-09-09T17:29:53.524Z,17.35
2018-09-09T17:32:20.978Z,17.37
2018-09-09T17:34:48.494Z,17.36
2018-09-09T17:37:15.965Z,17.35
2018-09-09T17:39:43.426Z,17.33
2018-09-09T17:42:10.855Z,17.32
2018-09-09T17:44:38.286Z,17.26
2018-09-09T17:47:05.993Z,17.21
2018-09-09T17:49:33.424Z,17.18
2018-09-09T17:52:00.852Z,17.17
2018-09-09T17:54:28.573Z,17.18
2018-09-09T17:56:56.053Z,17.19
2018-09-09T17:59:23.515Z,17.20
2018-09-09T18:01:51.011Z,17.20
2018-09-09T18:04:18.494Z,17.18
2018-09-09T18:06:46.022Z,17.18
2018-09-09T18:09:13.545Z,17.16
2018-09-09T18:11:41.040Z,17.14
2018-09-09T18:14:08.705Z,17.13
2018-09-09T18:16:36.234Z,17.12
2018-09-09T18:19:03.756Z,17.09
2018-09-09T18:21:31.235Z,17.08
2018-09-09T18:23:58.667Z,17.07
2018-09-09T18:26:26.135Z,17.03
2018-09-09T18:28:53.568Z,16.95
2018-09-09T18:31:21.032Z,16.91
2018-09-09T18:33:48.508Z,16.89
2018-09-09T18:36:15.950Z,16.91
2018-09-09T18:38:43.614Z,16.90
2018-09-09T18:41:11.029Z,16.92
2018-09-09T18:43:38.478Z,16.93
2018-09-09T18:46:06.170Z,16.93
2018-09-09T18:48:33.731Z,16.91
2018-09-09T18:51:01.221Z,16.87
2018-09-09T18:53:28.658Z,16.85
2018-09-09T18:55:56.166Z,16.83
2018-09-09T18:58:23.678Z,16.82
2018-09-09T19:00:51.353Z,16.80
2018-09-09T19:03:18.876Z,16.78
2018-09-09T19:05:46.422Z,16.76
2018-09-09T19:08:13.982Z,16.76
2018-09-09T19:10:41.495Z,16.76
2018-09-09T19:13:09.050Z,16.74
2018-09-09T19:15:36.518Z,16.75
2018-09-09T19:18:04.234Z,16.73
2018-09-09T19:20:31.694Z,16.71
2018-09-09T19:22:59.159Z,16.69
2018-09-09T19:25:26.734Z,16.67
2018-09-09T19:27:54.221Z,16.67
2018-09-09T19:30:21.646Z,16.66
2018-09-09T19:32:49.099Z,16.66
2018-09-09T19:35:16.578Z,16.67
2018-09-09T19:37:43.969Z,16.65
2018-09-09T19:40:11.439Z,16.65
2018-09-09T19:42:38.917Z,16.63
2018-09-09T19:45:06.792Z,16.60
2018-09-09T19:47:34.597Z,16.58
2018-09-09T19:50:03.347Z,16.58
2018-09-09T19:52:30.839Z,16.56
2018-09-09T19:54:58.437Z,16.53
2018-09-09T19:57:25.937Z,16.50
2018-09-09T19:59:53.567Z,16.45
2018-09-09T20:02:21.143Z,16.40
2018-09-09T20:04:48.701Z,16.35
2018-09-09T20:07:16.079Z,16.31
2018-09-09T20:09:43.538Z,16.32
2018-09-09T20:12:10.964Z,16.31
2018-09-09T20:14:38.437Z,16.31
2018-09-09T20:17:05.902Z,16.32
2018-09-09T20:19:33.369Z,16.31
2018-09-09T20:22:01.113Z,16.30
2018-09-09T20:24:28.520Z,16.29
2018-09-09T20:26:56.027Z,16.29
2018-09-09T20:29:23.497Z,16.28
2018-09-09T20:31:50.973Z,16.28
2018-09-09T20:34:18.470Z,16.26
2018-09-09T20:36:45.989Z,16.26
2018-09-09T20:39:13.473Z,16.24
2018-09-09T20:41:41.156Z,16.24
2018-09-09T20:44:08.681Z,16.25
2018-09-09T20:46:36.273Z,16.24
2018-09-09T20:49:03.758Z,16.24
2018-09-09T20:51:31.315Z,16.24
2018-09-09T20:53:58.775Z,16.24
2018-09-09T20:56:26.251Z,16.23
2018-09-09T20:58:53.793Z,16.24
2018-09-09T21:01:21.266Z,16.23
2018-09-09T21:03:48.696Z,16.21
2018-09-09T21:06:16.190Z,16.21
2018-09-09T21:08:43.661Z,16.20
2018-09-09T21:11:11.137Z,16.18
2018-09-09T21:13:38.721Z,16.17
2018-09-09T21:16:06.318Z,16.16
2018-09-09T21:18:33.840Z,16.14
2018-09-09T21:21:01.494Z,16.15
2018-09-09T21:23:28.948Z,16.15
2018-09-09T21:25:56.447Z,16.13
2018-09-09T21:28:23.873Z,16.12
2018-09-09T21:30:51.499Z,16.11
2018-09-09T21:33:18.982Z,16.12
2018-09-09T21:35:46.437Z,16.12
2018-09-09T21:38:13.995Z,16.10
2018-09-09T21:40:41.481Z,15.81
2018-09-09T21:43:08.881Z,16.10
2018-09-09T21:45:36.352Z,16.10
2018-09-09T21:48:04.042Z,16.06
2018-09-09T21:50:31.531Z,16.02
2018-09-09T21:52:59.140Z,16.03
2018-09-09T21:55:26.578Z,16.02
2018-09-09T21:57:54.038Z,16.04
2018-09-09T22:00:21.516Z,16.05
2018-09-09T22:02:48.989Z,16.04
2018-09-09T22:05:16.459Z,16.02
2018-09-09T22:07:43.909Z,16.03
2018-09-09T22:10:11.428Z,16.03
2018-09-09T22:12:38.957Z,16.05
2018-09-09T22:15:06.529Z,16.05
2018-09-09T22:17:33.964Z,16.06
2018-09-09T22:20:01.450Z,16.05
2018-09-09T22:22:29.362Z,15.99
2018-09-09T22:24:56.787Z,15.99
2018-09-09T22:27:24.224Z,15.97
2018-09-09T22:29:51.662Z,15.99
2018-09-09T22:32:19.142Z,16.00
2018-09-09T22:34:46.691Z,15.99
2018-09-09T22:37:14.210Z,15.96
2018-09-09T22:39:44.538Z,15.96
2018-09-09T22:42:11.993Z,15.96
2018-09-09T22:44:39.427Z,15.96
2018-09-09T22:47:06.928Z,15.99
2018-09-09T22:49:34.477Z,15.98
2018-09-09T22:52:01.920Z,16.02
2018-09-09T22:54:29.541Z,15.97
2018-09-09T22:56:57.036Z,15.94
2018-09-09T22:59:24.510Z,15.95
2018-09-09T23:01:51.966Z,15.96
2018-09-09T23:04:19.481Z,16.01
2018-09-09T23:06:46.961Z,16.02
2018-09-09T23:09:14.454Z,16.04
2018-09-09T23:11:41.926Z,16.06
2018-09-09T23:14:09.410Z,16.06
2018-09-09T23:16:36.972Z,16.07
2018-09-09T23:19:04.569Z,16.05
2018-09-09T23:21:32.037Z,16.07
2018-09-09T23:23:59.718Z,16.08
2018-09-09T23:26:27.240Z,16.09
2018-09-09T23:28:54.954Z,16.09
2018-09-09T23:31:22.418Z,16.09
2018-09-09T23:33:49.923Z,16.07
2018-09-09T23:36:17.384Z,16.04
2018-09-09T23:38:44.845Z,16.01
2018-09-09T23:41:12.320Z,16.04
2018-09-09T23:43:39.826Z,16.06
2018-09-09T23:46:07.293Z,16.07
2018-09-09T23:48:34.783Z,16.09
2018-09-09T23:51:02.310Z,16.10
2018-09-09T23:53:29.763Z,16.10
2018-09-09T23:55:57.763Z,16.12
2018-09-09T23:58:25.272Z,16.12
